sensor_id;sensor_type;location;lat;lon;timestamp;pressure;altitude;pressure_sealevel;temperature;humidity
30636;BME280;17400;52.392;9.750;2022-07-23T00:00:32;101172.06;;;19.15;100.00
30636;BME280;17400;52.392;9.750;2022-07-23T00:03:04;101187.94;;;19.13;100.00
30636;BME280;17400;52.392;9.750;2022-07-23T00:05:32;101181.53;;;19.08;100.00
30636;BME280;17400;52.392;9.750;2022-07-23T00:08:01;101185.91;;;19.09;100.00
30636;BME280;17400;52.392;9.750;2022-07-23T00:10:29;101172.22;;;18.97;100.00
30636;BME280;17400;52.392;9.750;2022-07-23T00:12:56;101168.66;;;18.96;100.00
30636;BME280;17400;52.392;9.750;2022-07-23T00:15:24;101167.94;;;19.01;100.00
30636;BME280;17400;52.392;9.750;2022-07-23T00:17:53;101182.25;;;19.03;100.00
30636;BME280;17400;52.392;9.750;2022-07-23T00:20:21;101183.56;;;19.01;100.00
30636;BME280;17400;52.392;9.750;2022-07-23T00:22:50;101185.22;;;19.02;100.00
30636;BME280;17400;52.392;9.750;2022-07-23T00:25:18;101186.91;;;19.03;100.00
30636;BME280;17400;52.392;9.750;2022-07-23T00:27:55;101178.94;;;19.01;100.00
30636;BME280;17400;52.392;9.750;2022-07-23T00:30:23;101189.53;;;18.97;100.00
30636;BME280;17400;52.392;9.750;2022-07-23T00:32:54;101195.50;;;18.94;100.00
30636;BME280;17400;52.392;9.750;2022-07-23T00:35:24;101178.22;;;18.94;100.00
30636;BME280;17400;52.392;9.750;2022-07-23T00:37:52;101179.88;;;18.95;100.00
30636;BME280;17400;52.392;9.750;2022-07-23T00:40:20;101171.28;;;18.91;100.00
30636;BME280;17400;52.392;9.750;2022-07-23T00:42:48;101161.63;;;18.89;100.00
30636;BME280;17400;52.392;9.750;2022-07-23T00:45:15;101166.88;;;18.90;100.00
30636;BME280;17400;52.392;9.750;2022-07-23T00:47:43;101175.97;;;18.91;100.00
30636;BME280;17400;52.392;9.750;2022-07-23T00:50:12;101175.09;;;18.90;100.00
30636;BME280;17400;52.392;9.750;2022-07-23T00:52:41;101171.53;;;18.90;100.00
30636;BME280;17400;52.392;9.750;2022-07-23T00:55:10;101179.13;;;18.88;100.00
30636;BME280;17400;52.392;9.750;2022-07-23T00:57:38;101180.84;;;18.89;100.00
30636;BME280;17400;52.392;9.750;2022-07-23T01:00:10;101182.13;;;18.86;100.00
30636;BME280;17400;52.392;9.750;2022-07-23T05:03:30;101154.41;;;17.69;100.00
30636;BME280;17400;52.392;9.750;2022-07-23T05:05:58;101151.66;;;17.69;100.00
30636;BME280;17400;52.392;9.750;2022-07-23T05:08:25;101160.56;;;17.64;100.00
30636;BME280;17400;52.392;9.750;2022-07-23T05:10:53;101154.66;;;17.68;100.00
30636;BME280;17400;52.392;9.750;2022-07-23T05:13:21;101147.88;;;17.70;100.00
30636;BME280;17400;52.392;9.750;2022-07-23T05:15:48;101155.97;;;17.77;100.00
30636;BME280;17400;52.392;9.750;2022-07-23T05:18:16;101149.41;;;17.78;100.00
30636;BME280;17400;52.392;9.750;2022-07-23T05:20:45;101144.31;;;17.81;100.00
30636;BME280;17400;52.392;9.750;2022-07-23T05:23:13;101147.16;;;17.87;100.00
30636;BME280;17400;52.392;9.750;2022-07-23T05:25:40;101147.78;;;17.89;100.00
30636;BME280;17400;52.392;9.750;2022-07-23T05:28:08;101145.19;;;17.94;100.00
30636;BME280;17400;52.392;9.750;2022-07-23T05:30:36;101153.84;;;17.91;100.00
30636;BME280;17400;52.392;9.750;2022-07-23T05:33:03;101146.84;;;17.95;100.00
30636;BME280;17400;52.392;9.750;2022-07-23T05:35:31;101152.47;;;18.00;100.00
30636;BME280;17400;52.392;9.750;2022-07-23T05:38:00;101152.94;;;17.97;100.00
30636;BME280;17400;52.392;9.750;2022-07-23T05:40:28;101146.97;;;18.00;100.00
30636;BME280;17400;52.392;9.750;2022-07-23T05:42:55;101151.78;;;18.05;100.00
30636;BME280;17400;52.392;9.750;2022-07-23T05:45:23;101146.88;;;18.07;100.00
30636;BME280;17400;52.392;9.750;2022-07-23T05:47:50;101156.06;;;18.12;100.00
30636;BME280;17400;52.392;9.750;2022-07-23T05:50:18;101158.91;;;18.18;100.00
30636;BME280;17400;52.392;9.750;2022-07-23T05:52:46;101157.03;;;18.18;100.00
30636;BME280;17400;52.392;9.750;2022-07-23T05:55:15;101165.38;;;18.23;100.00
30636;BME280;17400;52.392;9.750;2022-07-23T05:57:43;101159.16;;;18.28;100.00
30636;BME280;17400;52.392;9.750;2022-07-23T06:00:11;101155.34;;;18.29;100.00
30636;BME280;17400;52.392;9.750;2022-07-23T06:02:39;101165.25;;;18.30;100.00
30636;BME280;17400;52.392;9.750;2022-07-23T06:05:08;101175.72;;;18.33;100.00
30636;BME280;17400;52.392;9.750;2022-07-23T06:07:35;101179.66;;;18.37;100.00
30636;BME280;17400;52.392;9.750;2022-07-23T06:10:04;101175.13;;;18.43;100.00
30636;BME280;17400;52.392;9.750;2022-07-23T06:12:33;101177.16;;;18.47;100.00
30636;BME280;17400;52.392;9.750;2022-07-23T06:15:01;101175.25;;;18.48;100.00
30636;BME280;17400;52.392;9.750;2022-07-23T06:17:30;101173.34;;;18.48;100.00
30636;BME280;17400;52.392;9.750;2022-07-23T06:19:57;101173.09;;;18.50;100.00
30636;BME280;17400;52.392;9.750;2022-07-23T06:22:25;101180.25;;;18.51;100.00
30636;BME280;17400;52.392;9.750;2022-07-23T06:24:53;101171.56;;;18.42;100.00
30636;BME280;17400;52.392;9.750;2022-07-23T06:27:20;101172.50;;;18.48;100.00
30636;BME280;17400;52.392;9.750;2022-07-23T06:29:53;101164.63;;;18.52;100.00
30636;BME280;17400;52.392;9.750;2022-07-23T06:32:21;101165.81;;;18.56;100.00
30636;BME280;17400;52.392;9.750;2022-07-23T06:34:48;101163.09;;;18.56;100.00
30636;BME280;17400;52.392;9.750;2022-07-23T06:37:16;101160.47;;;18.61;100.00
30636;BME280;17400;52.392;9.750;2022-07-23T06:39:44;101166.75;;;18.73;100.00
30636;BME280;17400;52.392;9.750;2022-07-23T06:42:11;101171.28;;;18.79;100.00
30636;BME280;17400;52.392;9.750;2022-07-23T06:44:40;101181.31;;;18.86;100.00
30636;BME280;17400;52.392;9.750;2022-07-23T06:47:09;101180.00;;;18.88;100.00
30636;BME280;17400;52.392;9.750;2022-07-23T06:49:36;101178.81;;;18.84;100.00
30636;BME280;17400;52.392;9.750;2022-07-23T06:52:10;101187.50;;;18.69;100.00
30636;BME280;17400;52.392;9.750;2022-07-23T06:54:45;101176.78;;;18.79;100.00
30636;BME280;17400;52.392;9.750;2022-07-23T06:57:13;101185.88;;;18.68;100.00
30636;BME280;17400;52.392;9.750;2022-07-23T06:59:40;101183.13;;;18.68;100.00
30636;BME280;17400;52.392;9.750;2022-07-23T07:02:09;101186.44;;;18.58;100.00
30636;BME280;17400;52.392;9.750;2022-07-23T07:04:37;101185.88;;;18.44;100.00
30636;BME280;17400;52.392;9.750;2022-07-23T07:07:05;101180.59;;;18.67;100.00
30636;BME280;17400;52.392;9.750;2022-07-23T07:09:33;101190.03;;;18.71;100.00
30636;BME280;17400;52.392;9.750;2022-07-23T07:12:00;101188.91;;;18.84;100.00
30636;BME280;17400;52.392;9.750;2022-07-23T07:14:28;101183.59;;;18.89;100.00
30636;BME280;17400;52.392;9.750;2022-07-23T07:16:56;101188.47;;;18.98;100.00
30636;BME280;17400;52.392;9.750;2022-07-23T07:19:25;101189.03;;;19.01;100.00
30636;BME280;17400;52.392;9.750;2022-07-23T07:21:52;101185.22;;;19.13;100.00
30636;BME280;17400;52.392;9.750;2022-07-23T07:24:20;101185.63;;;19.22;100.00
30636;BME280;17400;52.392;9.750;2022-07-23T07:26:48;101186.84;;;19.26;100.00
30636;BME280;17400;52.392;9.750;2022-07-23T07:29:16;101194.44;;;19.36;100.00
30636;BME280;17400;52.392;9.750;2022-07-23T07:31:43;101200.03;;;19.41;98.51
30636;BME280;17400;52.392;9.750;2022-07-23T07:34:11;101207.78;;;19.44;99.72
30636;BME280;17400;52.392;9.750;2022-07-23T07:36:40;101202.03;;;19.46;97.48
30636;BME280;17400;52.392;9.750;2022-07-23T07:39:09;101201.72;;;19.42;97.69
30636;BME280;17400;52.392;9.750;2022-07-23T07:41:37;101203.06;;;19.28;97.69
30636;BME280;17400;52.392;9.750;2022-07-23T07:44:04;101206.28;;;19.25;98.50
30636;BME280;17400;52.392;9.750;2022-07-23T07:46:32;101214.75;;;19.23;99.42
30636;BME280;17400;52.392;9.750;2022-07-23T07:49:00;101205.69;;;19.23;100.00
30636;BME280;17400;52.392;9.750;2022-07-23T07:51:31;101211.59;;;19.43;99.51
30636;BME280;17400;52.392;9.750;2022-07-23T07:54:00;101215.28;;;19.49;97.99
30636;BME280;17400;52.392;9.750;2022-07-23T07:56:29;101210.38;;;19.51;97.71
30636;BME280;17400;52.392;9.750;2022-07-23T07:58:57;101220.31;;;19.40;97.44
30636;BME280;17400;52.392;9.750;2022-07-23T08:01:25;101218.91;;;19.38;96.83
30636;BME280;17400;52.392;9.750;2022-07-23T08:03:54;101221.53;;;19.33;97.24
30636;BME280;17400;52.392;9.750;2022-07-23T08:06:22;101210.38;;;19.51;96.24
30636;BME280;17400;52.392;9.750;2022-07-23T08:08:50;101221.84;;;19.77;94.70
30636;BME280;17400;52.392;9.750;2022-07-23T08:11:18;101218.00;;;19.90;93.45
30636;BME280;17400;52.392;9.750;2022-07-23T08:13:46;101214.44;;;19.77;93.95
30636;BME280;17400;52.392;9.750;2022-07-23T08:16:14;101219.81;;;19.84;93.04
30636;BME280;17400;52.392;9.750;2022-07-23T08:18:42;101220.06;;;19.83;92.58
30636;BME280;17400;52.392;9.750;2022-07-23T08:21:10;101225.44;;;19.77;93.82
30636;BME280;17400;52.392;9.750;2022-07-23T08:23:38;101222.69;;;19.77;93.61
30636;BME280;17400;52.392;9.750;2022-07-23T08:26:05;101233.00;;;19.70;93.51
30636;BME280;17400;52.392;9.750;2022-07-23T08:28:34;101232.00;;;19.47;87.80
30636;BME280;17400;52.392;9.750;2022-07-23T08:31:02;101231.81;;;19.37;90.67
30636;BME280;17400;52.392;9.750;2022-07-23T08:33:32;101223.72;;;19.59;90.52
30636;BME280;17400;52.392;9.750;2022-07-23T08:36:01;101229.16;;;19.71;89.87
30636;BME280;17400;52.392;9.750;2022-07-23T08:38:30;101233.56;;;19.72;88.11
30636;BME280;17400;52.392;9.750;2022-07-23T08:40:58;101237.97;;;19.85;88.24
30636;BME280;17400;52.392;9.750;2022-07-23T08:43:27;101238.16;;;19.95;85.92
30636;BME280;17400;52.392;9.750;2022-07-23T08:45:58;101231.00;;;20.11;82.25
30636;BME280;17400;52.392;9.750;2022-07-23T08:48:29;101219.50;;;20.14;81.55
30636;BME280;17400;52.392;9.750;2022-07-23T08:50:59;101226.69;;;20.16;81.11
30636;BME280;17400;52.392;9.750;2022-07-23T08:53:29;101228.00;;;20.13;82.74
30636;BME280;17400;52.392;9.750;2022-07-23T08:55:58;101229.66;;;19.97;83.06
30636;BME280;17400;52.392;9.750;2022-07-23T08:58:28;101230.16;;;19.94;83.08
30636;BME280;17400;52.392;9.750;2022-07-23T09:00:57;101241.06;;;19.89;83.59
30636;BME280;17400;52.392;9.750;2022-07-23T09:03:26;101243.66;;;19.95;83.81
30636;BME280;17400;52.392;9.750;2022-07-23T09:05:55;101234.75;;;20.05;81.10
30636;BME280;17400;52.392;9.750;2022-07-23T09:08:25;101236.84;;;20.15;78.25
30636;BME280;17400;52.392;9.750;2022-07-23T09:10:55;101231.50;;;20.25;77.88
30636;BME280;17400;52.392;9.750;2022-07-23T09:13:32;101227.19;;;20.29;78.28
30636;BME280;17400;52.392;9.750;2022-07-23T09:16:05;101243.44;;;20.31;79.04
30636;BME280;17400;52.392;9.750;2022-07-23T09:18:39;101233.19;;;20.43;77.40
30636;BME280;17400;52.392;9.750;2022-07-23T09:21:16;101235.84;;;20.55;77.65
30636;BME280;17400;52.392;9.750;2022-07-23T09:23:47;101235.69;;;20.45;76.70
30636;BME280;17400;52.392;9.750;2022-07-23T09:26:24;101240.78;;;20.36;78.61
30636;BME280;17400;52.392;9.750;2022-07-23T09:28:55;101245.09;;;20.32;78.68
30636;BME280;17400;52.392;9.750;2022-07-23T09:31:25;101241.50;;;20.48;78.04
30636;BME280;17400;52.392;9.750;2022-07-23T09:34:07;101236.44;;;20.57;78.18
30636;BME280;17400;52.392;9.750;2022-07-23T09:36:35;101229.81;;;20.58;78.36
30636;BME280;17400;52.392;9.750;2022-07-23T09:39:03;101243.19;;;20.50;76.13
30636;BME280;17400;52.392;9.750;2022-07-23T09:41:37;101230.59;;;20.37;77.30
30636;BME280;17400;52.392;9.750;2022-07-23T09:44:11;101243.34;;;20.26;77.36
30636;BME280;17400;52.392;9.750;2022-07-23T09:46:40;101237.34;;;20.29;78.58
30636;BME280;17400;52.392;9.750;2022-07-23T09:49:14;101241.84;;;20.35;79.12
30636;BME280;17400;52.392;9.750;2022-07-23T09:51:51;101230.50;;;20.48;76.07
30636;BME280;17400;52.392;9.750;2022-07-23T09:54:30;101235.75;;;20.50;73.25
30636;BME280;17400;52.392;9.750;2022-07-23T09:57:02;101228.56;;;20.66;72.60
30636;BME280;17400;52.392;9.750;2022-07-23T09:59:33;101231.84;;;20.80;73.02
30636;BME280;17400;52.392;9.750;2022-07-23T10:02:03;101230.63;;;20.93;71.32
30636;BME280;17400;52.392;9.750;2022-07-23T10:04:32;101234.59;;;21.02;69.73
30636;BME280;17400;52.392;9.750;2022-07-23T10:07:05;101230.34;;;21.11;68.91
30636;BME280;17400;52.392;9.750;2022-07-23T10:09:35;101231.09;;;21.07;69.07
30636;BME280;17400;52.392;9.750;2022-07-23T10:12:11;101225.78;;;21.00;66.14
30636;BME280;17400;52.392;9.750;2022-07-23T10:14:58;101224.06;;;20.77;67.60
30636;BME280;17400;52.392;9.750;2022-07-23T10:17:29;101233.38;;;20.71;69.47
30636;BME280;17400;52.392;9.750;2022-07-23T10:19:56;101234.66;;;20.68;71.83
30636;BME280;17400;52.392;9.750;2022-07-23T10:22:26;101240.00;;;20.58;71.91
30636;BME280;17400;52.392;9.750;2022-07-23T10:25:10;101241.50;;;20.48;71.44
30636;BME280;17400;52.392;9.750;2022-07-23T10:28:06;101244.34;;;20.54;71.06
30636;BME280;17400;52.392;9.750;2022-07-23T10:30:44;101231.50;;;20.59;71.24
30636;BME280;17400;52.392;9.750;2022-07-23T10:33:23;101231.31;;;20.66;69.12
30636;BME280;17400;52.392;9.750;2022-07-23T10:35:57;101234.09;;;20.83;68.84
30636;BME280;17400;52.392;9.750;2022-07-23T10:38:30;101231.47;;;20.93;67.34
30636;BME280;17400;52.392;9.750;2022-07-23T10:41:04;101235.13;;;20.99;64.27
30636;BME280;17400;52.392;9.750;2022-07-23T10:43:32;101241.28;;;21.06;65.34
30636;BME280;17400;52.392;9.750;2022-07-23T10:46:21;101242.19;;;21.12;64.08
30636;BME280;17400;52.392;9.750;2022-07-23T10:52:25;101236.88;;;21.05;65.18
30636;BME280;17400;52.392;9.750;2022-07-23T10:54:55;101240.00;;;20.92;67.13
30636;BME280;17400;52.392;9.750;2022-07-23T10:57:25;101243.31;;;20.94;67.74
30636;BME280;17400;52.392;9.750;2022-07-23T11:00:21;101240.44;;;21.06;66.58
30636;BME280;17400;52.392;9.750;2022-07-23T11:02:50;101244.13;;;21.11;65.32
30636;BME280;17400;52.392;9.750;2022-07-23T11:05:19;101238.47;;;21.23;64.55
30636;BME280;17400;52.392;9.750;2022-07-23T11:08:15;101240.41;;;21.23;63.78
30636;BME280;17400;52.392;9.750;2022-07-23T11:10:46;101235.97;;;21.22;63.00
30636;BME280;17400;52.392;9.750;2022-07-23T11:13:37;101239.75;;;21.16;63.16
30636;BME280;17400;52.392;9.750;2022-07-23T11:16:08;101239.94;;;21.09;62.22
30636;BME280;17400;52.392;9.750;2022-07-23T11:18:56;101236.09;;;21.10;62.99
30636;BME280;17400;52.392;9.750;2022-07-23T11:21:43;101244.69;;;21.13;62.44
30636;BME280;17400;52.392;9.750;2022-07-23T11:24:13;101236.16;;;21.15;63.33
30636;BME280;17400;52.392;9.750;2022-07-23T11:26:47;101227.28;;;21.30;62.11
30636;BME280;17400;52.392;9.750;2022-07-23T11:29:44;101227.97;;;21.42;60.41
30636;BME280;17400;52.392;9.750;2022-07-23T11:32:34;101224.06;;;21.38;59.81
30636;BME280;17400;52.392;9.750;2022-07-23T11:35:23;101225.47;;;21.41;60.13
30636;BME280;17400;52.392;9.750;2022-07-23T11:37:53;101229.63;;;21.43;60.89
30636;BME280;17400;52.392;9.750;2022-07-23T11:40:26;101229.53;;;21.55;60.33
30636;BME280;17400;52.392;9.750;2022-07-23T11:42:57;101222.81;;;21.73;59.38
30636;BME280;17400;52.392;9.750;2022-07-23T11:45:30;101221.63;;;21.91;58.45
30636;BME280;17400;52.392;9.750;2022-07-23T11:47:58;101216.22;;;22.02;58.64
30636;BME280;17400;52.392;9.750;2022-07-23T11:50:26;101218.22;;;22.11;57.38
30636;BME280;17400;52.392;9.750;2022-07-23T11:52:54;101223.56;;;22.56;55.20
30636;BME280;17400;52.392;9.750;2022-07-23T11:55:22;101216.06;;;22.51;53.63
30636;BME280;17400;52.392;9.750;2022-07-23T11:57:52;101219.38;;;22.48;55.07
30636;BME280;17400;52.392;9.750;2022-07-23T12:00:22;101219.72;;;22.62;54.65
30636;BME280;17400;52.392;9.750;2022-07-23T12:02:52;101224.13;;;22.58;54.51
30636;BME280;17400;52.392;9.750;2022-07-23T12:05:23;101221.44;;;22.68;53.74
30636;BME280;17400;52.392;9.750;2022-07-23T12:07:52;101218.25;;;22.92;53.02
30636;BME280;17400;52.392;9.750;2022-07-23T12:10:22;101225.47;;;22.98;53.59
30636;BME280;17400;52.392;9.750;2022-07-23T12:12:54;101222.56;;;22.72;53.97
30636;BME280;17400;52.392;9.750;2022-07-23T12:15:25;101229.44;;;22.70;54.57
30636;BME280;17400;52.392;9.750;2022-07-23T12:17:53;101225.94;;;23.43;52.69
30636;BME280;17400;52.392;9.750;2022-07-23T12:20:22;101216.41;;;23.92;50.54
30636;BME280;17400;52.392;9.750;2022-07-23T12:22:52;101228.75;;;23.53;50.01
30636;BME280;17400;52.392;9.750;2022-07-23T12:25:22;101226.44;;;23.19;52.03
30636;BME280;17400;52.392;9.750;2022-07-23T12:28:04;101222.94;;;23.44;51.56
30636;BME280;17400;52.392;9.750;2022-07-23T12:30:34;101217.47;;;23.81;50.11
30636;BME280;17400;52.392;9.750;2022-07-23T12:33:05;101216.16;;;24.29;49.93
30636;BME280;17400;52.392;9.750;2022-07-23T12:35:35;101217.78;;;24.61;48.41
30636;BME280;17400;52.392;9.750;2022-07-23T12:38:05;101220.25;;;24.84;46.96
30636;BME280;17400;52.392;9.750;2022-07-23T12:40:36;101221.03;;;25.00;46.32
30636;BME280;17400;52.392;9.750;2022-07-23T12:43:08;101219.59;;;25.13;46.12
30636;BME280;17400;52.392;9.750;2022-07-23T12:45:47;101224.31;;;25.07;44.86
30636;BME280;17400;52.392;9.750;2022-07-23T12:48:17;101219.63;;;25.07;45.13
30636;BME280;17400;52.392;9.750;2022-07-23T12:50:52;101212.28;;;25.32;43.94
30636;BME280;17400;52.392;9.750;2022-07-23T12:53:22;101227.59;;;25.19;44.23
30636;BME280;17400;52.392;9.750;2022-07-23T12:55:57;101226.75;;;25.19;43.70
30636;BME280;17400;52.392;9.750;2022-07-23T12:58:48;101225.41;;;25.11;43.58
30636;BME280;17400;52.392;9.750;2022-07-23T13:01:26;101230.44;;;25.04;44.43
30636;BME280;17400;52.392;9.750;2022-07-23T13:03:56;101227.75;;;24.68;44.27
30636;BME280;17400;52.392;9.750;2022-07-23T13:06:25;101233.00;;;24.54;45.37
30636;BME280;17400;52.392;9.750;2022-07-23T13:08:53;101237.44;;;24.75;43.93
30636;BME280;17400;52.392;9.750;2022-07-23T13:11:21;101237.41;;;24.81;43.63
30636;BME280;17400;52.392;9.750;2022-07-23T13:13:50;101234.97;;;24.69;44.17
30636;BME280;17400;52.392;9.750;2022-07-23T13:16:18;101232.41;;;24.93;43.05
30636;BME280;17400;52.392;9.750;2022-07-23T13:18:47;101237.09;;;24.92;43.79
30636;BME280;17400;52.392;9.750;2022-07-23T13:21:15;101229.66;;;24.77;43.52
30636;BME280;17400;52.392;9.750;2022-07-23T13:23:43;101231.31;;;24.84;43.41
30636;BME280;17400;52.392;9.750;2022-07-23T13:26:11;101234.00;;;25.04;42.99
30636;BME280;17400;52.392;9.750;2022-07-23T13:28:38;101239.53;;;25.09;42.62
30636;BME280;17400;52.392;9.750;2022-07-23T13:31:07;101223.66;;;25.41;42.96
30636;BME280;17400;52.392;9.750;2022-07-23T13:33:35;101234.34;;;25.63;41.86
30636;BME280;17400;52.392;9.750;2022-07-23T13:36:04;101228.78;;;25.68;41.63
30636;BME280;17400;52.392;9.750;2022-07-23T13:38:31;101232.63;;;25.72;41.43
30636;BME280;17400;52.392;9.750;2022-07-23T13:41:00;101236.16;;;25.28;41.70
30636;BME280;17400;52.392;9.750;2022-07-23T13:43:29;101237.94;;;24.98;42.65
30636;BME280;17400;52.392;9.750;2022-07-23T13:46:02;101233.22;;;24.99;42.51
30636;BME280;17400;52.392;9.750;2022-07-23T13:48:31;101229.09;;;24.86;42.83
30636;BME280;17400;52.392;9.750;2022-07-23T13:50:58;101230.22;;;24.90;42.90
30636;BME280;17400;52.392;9.750;2022-07-23T13:53:27;101236.72;;;25.25;42.46
30636;BME280;17400;52.392;9.750;2022-07-23T13:55:55;101232.56;;;25.27;42.33
30636;BME280;17400;52.392;9.750;2022-07-23T13:58:23;101223.22;;;25.08;42.15
30636;BME280;17400;52.392;9.750;2022-07-23T14:00:53;101229.59;;;25.08;41.86
30636;BME280;17400;52.392;9.750;2022-07-23T14:03:21;101231.63;;;24.77;42.17
30636;BME280;17400;52.392;9.750;2022-07-23T14:05:52;101224.91;;;24.99;42.59
30636;BME280;17400;52.392;9.750;2022-07-23T14:08:22;101228.38;;;25.30;42.09
30636;BME280;17400;52.392;9.750;2022-07-23T14:10:50;101224.91;;;25.64;41.00
30636;BME280;17400;52.392;9.750;2022-07-23T14:13:17;101229.53;;;25.79;39.63
30636;BME280;17400;52.392;9.750;2022-07-23T14:15:47;101230.25;;;25.95;39.68
30636;BME280;17400;52.392;9.750;2022-07-23T14:18:16;101237.13;;;26.03;39.11
30636;BME280;17400;52.392;9.750;2022-07-23T14:20:44;101227.84;;;26.23;39.74
30636;BME280;17400;52.392;9.750;2022-07-23T14:23:13;101233.69;;;26.51;38.92
30636;BME280;17400;52.392;9.750;2022-07-23T14:25:41;101233.00;;;26.64;39.11
30636;BME280;17400;52.392;9.750;2022-07-23T14:28:09;101246.50;;;26.47;39.09
30636;BME280;17400;52.392;9.750;2022-07-23T14:30:38;101236.91;;;25.94;40.13
30636;BME280;17400;52.392;9.750;2022-07-23T14:33:07;101245.81;;;25.91;40.21
30636;BME280;17400;52.392;9.750;2022-07-23T14:35:35;101237.78;;;26.29;39.38
30636;BME280;17400;52.392;9.750;2022-07-23T14:38:03;101247.78;;;26.59;39.41
30636;BME280;17400;52.392;9.750;2022-07-23T14:40:31;101236.06;;;26.63;38.51
30636;BME280;17400;52.392;9.750;2022-07-23T14:42:59;101237.50;;;26.89;38.49
30636;BME280;17400;52.392;9.750;2022-07-23T14:45:27;101242.22;;;26.89;37.85
30636;BME280;17400;52.392;9.750;2022-07-23T14:47:56;101239.91;;;26.96;37.81
30636;BME280;17400;52.392;9.750;2022-07-23T14:50:24;101246.81;;;26.74;37.87
30636;BME280;17400;52.392;9.750;2022-07-23T14:52:52;101245.16;;;26.73;38.23
30636;BME280;17400;52.392;9.750;2022-07-23T14:55:20;101254.34;;;26.98;37.03
30636;BME280;17400;52.392;9.750;2022-07-23T14:57:49;101248.34;;;27.34;36.75
30636;BME280;17400;52.392;9.750;2022-07-23T15:00:17;101251.25;;;27.48;36.31
30636;BME280;17400;52.392;9.750;2022-07-23T15:02:49;101247.13;;;27.46;36.38
30636;BME280;17400;52.392;9.750;2022-07-23T15:05:21;101242.06;;;27.48;36.93
30636;BME280;17400;52.392;9.750;2022-07-23T15:07:51;101242.41;;;27.22;36.79
30636;BME280;17400;52.392;9.750;2022-07-23T15:10:18;101243.56;;;27.40;36.63
30636;BME280;17400;52.392;9.750;2022-07-23T15:12:48;101238.41;;;27.52;37.11
30636;BME280;17400;52.392;9.750;2022-07-23T15:15:17;101244.50;;;27.73;37.06
30636;BME280;17400;52.392;9.750;2022-07-23T15:17:47;101250.06;;;27.92;35.66
30636;BME280;17400;52.392;9.750;2022-07-23T15:20:15;101243.28;;;27.99;35.18
30636;BME280;17400;52.392;9.750;2022-07-23T15:23:03;101242.91;;;27.67;35.58
30636;BME280;17400;52.392;9.750;2022-07-23T15:25:34;101242.09;;;27.86;35.98
30636;BME280;17400;52.392;9.750;2022-07-23T15:28:02;101241.00;;;27.68;35.49
30636;BME280;17400;52.392;9.750;2022-07-23T15:30:31;101255.47;;;27.65;35.68
30636;BME280;17400;52.392;9.750;2022-07-23T15:32:59;101251.94;;;27.59;35.54
30636;BME280;17400;52.392;9.750;2022-07-23T15:35:30;101247.44;;;27.63;35.56
30636;BME280;17400;52.392;9.750;2022-07-23T15:37:58;101238.47;;;27.47;35.27
30636;BME280;17400;52.392;9.750;2022-07-23T15:40:33;101247.22;;;27.35;36.26
30636;BME280;17400;52.392;9.750;2022-07-23T15:43:00;101242.75;;;27.15;35.96
30636;BME280;17400;52.392;9.750;2022-07-23T15:45:31;101239.09;;;26.71;37.20
30636;BME280;17400;52.392;9.750;2022-07-23T15:47:58;101241.63;;;26.33;37.17
30636;BME280;17400;52.392;9.750;2022-07-23T15:50:26;101247.13;;;26.09;38.79
30636;BME280;17400;52.392;9.750;2022-07-23T15:52:54;101246.00;;;26.00;39.17
30636;BME280;17400;52.392;9.750;2022-07-23T15:55:25;101242.53;;;25.84;38.82
30636;BME280;17400;52.392;9.750;2022-07-23T15:57:52;101242.09;;;25.66;38.71
30636;BME280;17400;52.392;9.750;2022-07-23T16:00:21;101246.59;;;25.52;38.71
30636;BME280;17400;52.392;9.750;2022-07-23T16:02:50;101244.44;;;25.43;38.74
30636;BME280;17400;52.392;9.750;2022-07-23T16:05:18;101249.97;;;25.33;39.05
30636;BME280;17400;52.392;9.750;2022-07-23T16:07:46;101246.44;;;25.17;39.67
30636;BME280;17400;52.392;9.750;2022-07-23T16:10:13;101246.22;;;25.03;40.07
30636;BME280;17400;52.392;9.750;2022-07-23T16:12:41;101237.41;;;24.86;39.99
30636;BME280;17400;52.392;9.750;2022-07-23T16:15:09;101251.53;;;24.79;40.49
30636;BME280;17400;52.392;9.750;2022-07-23T16:17:37;101244.91;;;24.80;41.19
30636;BME280;17400;52.392;9.750;2022-07-23T16:20:07;101244.63;;;24.76;40.91
30636;BME280;17400;52.392;9.750;2022-07-23T16:22:35;101236.06;;;24.73;41.87
30636;BME280;17400;52.392;9.750;2022-07-23T16:25:04;101236.88;;;24.73;41.71
30636;BME280;17400;52.392;9.750;2022-07-23T16:27:32;101241.59;;;24.68;41.48
30636;BME280;17400;52.392;9.750;2022-07-23T16:30:00;101233.00;;;24.54;41.43
30636;BME280;17400;52.392;9.750;2022-07-23T16:32:28;101239.94;;;24.46;41.48
30636;BME280;17400;52.392;9.750;2022-07-23T16:34:55;101234.38;;;24.41;41.76
30636;BME280;17400;52.392;9.750;2022-07-23T16:37:25;101238.28;;;24.35;41.93
30636;BME280;17400;52.392;9.750;2022-07-23T16:39:52;101238.56;;;24.23;42.08
30636;BME280;17400;52.392;9.750;2022-07-23T16:42:20;101241.31;;;24.12;42.48
30636;BME280;17400;52.392;9.750;2022-07-23T16:44:48;101234.69;;;24.03;43.04
30636;BME280;17400;52.392;9.750;2022-07-23T16:47:16;101235.25;;;24.00;43.09
30636;BME280;17400;52.392;9.750;2022-07-23T16:49:46;101243.75;;;23.88;43.00
30636;BME280;17400;52.392;9.750;2022-07-23T16:52:14;101237.94;;;23.85;43.31
30636;BME280;17400;52.392;9.750;2022-07-23T16:54:43;101242.91;;;23.83;43.59
30636;BME280;17400;52.392;9.750;2022-07-23T16:57:11;101241.28;;;23.87;43.86
30636;BME280;17400;52.392;9.750;2022-07-23T16:59:38;101241.78;;;23.78;43.64
30636;BME280;17400;52.392;9.750;2022-07-23T17:02:06;101246.50;;;23.83;44.12
30636;BME280;17400;52.392;9.750;2022-07-23T17:04:34;101245.13;;;23.75;44.20
30636;BME280;17400;52.392;9.750;2022-07-23T17:07:02;101245.09;;;23.65;44.71